createdAt,value
2018-09-27T00:01:04.723Z,1.40
2018-09-27T00:03:32.635Z,1.40
2018-09-27T00:06:00.565Z,1.40
2018-09-27T00:08:28.574Z,1.20
2018-09-27T00:10:56.435Z,1.20
2018-09-27T00:13:24.303Z,1.40
2018-09-27T00:15:52.227Z,1.20
2018-09-27T00:18:20.193Z,1.43
2018-09-27T00:20:48.095Z,1.40
2018-09-27T00:23:15.959Z,1.80
2018-09-27T00:25:43.903Z,1.60
2018-09-27T00:28:11.791Z,1.27
2018-09-27T00:30:40.795Z,1.20
2018-09-27T00:33:08.659Z,1.37
2018-09-27T00:35:36.587Z,1.50
2018-09-27T00:38:04.498Z,1.40
2018-09-27T00:40:32.369Z,1.20
2018-09-27T00:43:00.302Z,1.50
2018-09-27T00:45:28.178Z,1.90
2018-09-27T00:47:56.248Z,1.77
2018-09-27T00:50:24.462Z,1.47
2018-09-27T00:52:52.355Z,1.83
2018-09-27T00:55:20.214Z,2.00
2018-09-27T00:57:48.083Z,1.70
2018-09-27T01:00:15.965Z,1.80
2018-09-27T01:02:43.848Z,1.60
2018-09-27T01:05:11.707Z,1.70
2018-09-27T01:07:39.588Z,1.50
2018-09-27T01:10:07.459Z,1.63
2018-09-27T01:12:35.410Z,1.80
2018-09-27T01:15:03.339Z,1.87
2018-09-27T01:17:33.120Z,1.87
2018-09-27T01:20:00.991Z,1.70
2018-09-27T01:22:28.858Z,2.20
2018-09-27T01:24:56.729Z,2.00
2018-09-27T01:27:24.642Z,2.27
2018-09-27T01:29:52.484Z,1.70
2018-09-27T01:32:20.339Z,1.97
2018-09-27T01:34:48.187Z,2.10
2018-09-27T01:37:16.119Z,1.60
2018-09-27T01:39:43.971Z,2.27
2018-09-27T01:42:11.839Z,2.17
2018-09-27T01:44:39.773Z,1.90
2018-09-27T01:47:07.714Z,1.80
2018-09-27T01:49:35.514Z,1.90
2018-09-27T01:52:08.113Z,1.93
2018-09-27T01:54:35.964Z,1.70
2018-09-27T01:57:03.831Z,1.60
2018-09-27T01:59:31.736Z,1.80
2018-09-27T02:01:59.624Z,1.57
2018-09-27T02:04:27.515Z,2.03
2018-09-27T02:06:55.383Z,2.13
2018-09-27T02:09:23.492Z,1.80
2018-09-27T02:11:51.380Z,1.90
2018-09-27T02:14:19.231Z,2.10
2018-09-27T02:16:47.207Z,2.57
2018-09-27T02:19:15.063Z,1.73
2018-09-27T02:21:42.946Z,1.83
2018-09-27T02:24:10.854Z,1.87
2018-09-27T02:26:38.758Z,2.07
2018-09-27T02:29:06.791Z,1.70
2018-09-27T02:31:34.722Z,2.20
2018-09-27T02:34:02.609Z,2.00
2018-09-27T02:36:30.543Z,1.70
2018-09-27T02:38:58.427Z,2.10
2018-09-27T02:41:26.285Z,2.20
2018-09-27T02:43:54.143Z,1.83
2018-09-27T02:46:22.051Z,1.70
2018-09-27T02:48:51.297Z,2.10
2018-09-27T02:51:19.258Z,2.00
2018-09-27T02:53:47.201Z,1.90
2018-09-27T02:56:15.099Z,2.00
2018-09-27T02:58:42.987Z,2.03
2018-09-27T03:01:11.084Z,2.30
2018-09-27T03:03:39.042Z,1.90
2018-09-27T03:06:07.050Z,1.97
2018-09-27T03:08:35.007Z,2.03
2018-09-27T03:11:02.892Z,1.90
2018-09-27T03:13:30.799Z,1.83
2018-09-27T03:15:58.676Z,1.53
2018-09-27T03:18:26.643Z,1.80
2018-09-27T03:20:54.566Z,1.53
2018-09-27T03:23:22.419Z,1.47
2018-09-27T03:25:50.518Z,1.80
2018-09-27T03:28:18.414Z,2.00
2018-09-27T03:30:46.307Z,2.00
2018-09-27T03:33:14.207Z,1.80
2018-09-27T03:35:42.069Z,1.90
2018-09-27T03:38:10.040Z,1.87
2018-09-27T03:40:37.946Z,2.07
2018-09-27T03:43:05.779Z,1.90
2018-09-27T03:45:33.635Z,1.60
2018-09-27T03:48:01.504Z,1.73
2018-09-27T03:50:29.491Z,2.47
2018-09-27T03:52:57.416Z,1.90
2018-09-27T03:55:25.264Z,1.97
2018-09-27T03:57:53.235Z,1.70
2018-09-27T04:00:21.109Z,2.17
2018-09-27T04:02:49.043Z,1.93
2018-09-27T04:05:16.942Z,1.83
2018-09-27T04:07:44.839Z,2.13
2018-09-27T04:10:12.786Z,1.70
2018-09-27T04:12:40.752Z,2.07
2018-09-27T04:15:08.553Z,2.10
2018-09-27T04:17:36.410Z,2.17
2018-09-27T04:20:04.603Z,2.30
2018-09-27T04:22:32.479Z,2.63
2018-09-27T04:25:00.395Z,2.47
2018-09-27T04:27:29.653Z,2.67
2018-09-27T04:29:57.604Z,2.73
2018-09-27T04:32:25.536Z,3.03
2018-09-27T04:34:53.399Z,9.13
2018-09-27T04:37:21.255Z,3.07
2018-09-27T04:39:49.158Z,2.37
2018-09-27T04:42:16.999Z,2.77
2018-09-27T04:44:44.886Z,2.53
2018-09-27T04:47:12.818Z,2.37
2018-09-27T04:49:40.692Z,2.37
2018-09-27T04:52:15.468Z,2.10
2018-09-27T04:54:43.323Z,2.23
2018-09-27T04:57:11.182Z,2.30
2018-09-27T04:59:39.050Z,2.87
2018-09-27T05:02:06.932Z,2.87
2018-09-27T05:04:34.846Z,2.60
2018-09-27T05:07:02.762Z,2.80
2018-09-27T05:09:30.643Z,2.27
2018-09-27T05:11:58.563Z,2.67
2018-09-27T05:14:26.542Z,2.13
2018-09-27T05:16:54.423Z,1.80
2018-09-27T05:19:22.292Z,2.40
2018-09-27T05:21:50.160Z,2.67
2018-09-27T05:24:18.174Z,2.00
2018-09-27T05:26:46.068Z,1.90
2018-09-27T05:29:13.921Z,2.20
2018-09-27T05:31:41.886Z,2.80
2018-09-27T05:34:16.063Z,3.00
2018-09-27T05:36:43.952Z,2.60
2018-09-27T05:39:11.857Z,3.57
2018-09-27T05:41:39.735Z,3.30
2018-09-27T05:44:08.238Z,3.97
2018-09-27T05:46:36.103Z,3.10
2018-09-27T05:49:03.979Z,3.40
2018-09-27T05:51:32.616Z,2.50
2018-09-27T05:54:00.602Z,3.20
2018-09-27T05:56:28.472Z,3.27
2018-09-27T05:58:56.362Z,2.63
2018-09-27T06:01:24.223Z,2.83
2018-09-27T06:03:52.144Z,2.83
2018-09-27T06:06:20.159Z,2.33
2018-09-27T06:08:48.083Z,2.53
2018-09-27T06:11:15.996Z,2.33
2018-09-27T06:13:43.871Z,2.60
2018-09-27T06:16:11.760Z,2.73
2018-09-27T06:18:39.630Z,3.30
2018-09-27T06:21:07.538Z,3.57
2018-09-27T06:23:35.456Z,3.37
2018-09-27T06:26:03.340Z,3.30
2018-09-27T06:28:31.207Z,4.17
2018-09-27T06:30:59.087Z,3.40
2018-09-27T06:33:27.014Z,4.20
2018-09-27T06:35:54.947Z,6.63
2018-09-27T06:38:22.932Z,6.83
2018-09-27T06:40:50.869Z,5.83
2018-09-27T06:43:18.759Z,4.30
2018-09-27T06:45:46.707Z,3.77
2018-09-27T06:48:14.582Z,3.70
2018-09-27T06:50:42.633Z,3.73
2018-09-27T06:53:10.424Z,3.73
2018-09-27T06:55:38.607Z,3.90
2018-09-27T06:58:06.297Z,3.70
2018-09-27T07:00:34.199Z,3.50
2018-09-27T07:03:02.476Z,3.00
2018-09-27T07:05:30.580Z,3.40
2018-09-27T07:07:58.485Z,3.30
2018-09-27T07:10:26.392Z,3.50
2018-09-27T07:12:54.424Z,3.20
2018-09-27T07:15:22.241Z,3.77
2018-09-27T07:17:50.194Z,3.43
2018-09-27T07:20:18.110Z,3.37
2018-09-27T07:22:45.942Z,3.70
2018-09-27T07:25:13.901Z,3.73
2018-09-27T07:27:41.751Z,3.10
2018-09-27T07:30:09.611Z,4.70
2018-09-27T07:32:37.604Z,2.83
2018-09-27T07:35:05.427Z,3.00
2018-09-27T07:37:33.333Z,3.03
2018-09-27T07:40:01.315Z,3.13
2018-09-27T07:42:29.294Z,3.17
2018-09-27T07:44:57.255Z,3.30
2018-09-27T07:47:25.155Z,3.20
2018-09-27T07:49:53.028Z,3.43
2018-09-27T07:52:20.959Z,3.57
2018-09-27T07:54:48.854Z,3.37
2018-09-27T07:57:16.756Z,3.27
2018-09-27T07:59:44.625Z,3.87
2018-09-27T08:02:12.534Z,3.33
2018-09-27T08:04:40.479Z,3.63
2018-09-27T08:07:08.383Z,3.17
2018-09-27T08:09:36.355Z,3.90
2018-09-27T08:12:04.298Z,4.07
2018-09-27T08:14:33.382Z,3.43
2018-09-27T08:17:01.307Z,3.77
2018-09-27T08:19:29.144Z,4.67
2018-09-27T08:21:57.003Z,4.40
2018-09-27T08:24:26.979Z,4.17
2018-09-27T08:26:54.871Z,3.77
2018-09-27T08:29:22.735Z,3.80
2018-09-27T08:31:50.602Z,4.37
2018-09-27T08:34:18.469Z,4.10
2018-09-27T08:36:46.340Z,3.90
2018-09-27T08:39:14.194Z,4.17
2018-09-27T08:41:42.075Z,4.63
2018-09-27T08:44:10.755Z,4.20
2018-09-27T08:46:38.699Z,4.27
2018-09-27T08:49:07.558Z,4.27
2018-09-27T08:51:36.944Z,6.67
2018-09-27T08:54:04.893Z,4.40
2018-09-27T08:56:32.818Z,4.83
2018-09-27T08:59:00.631Z,4.70
2018-09-27T09:01:28.491Z,4.43
2018-09-27T09:03:56.462Z,4.60
2018-09-27T09:06:24.264Z,4.50
2018-09-27T09:08:52.118Z,4.07
2018-09-27T09:11:19.995Z,4.20
2018-09-27T09:13:47.851Z,4.33
2018-09-27T09:16:15.719Z,4.40
2018-09-27T09:18:43.578Z,4.70
2018-09-27T09:21:11.435Z,4.80
2018-09-27T09:23:39.303Z,4.70
2018-09-27T09:26:07.226Z,5.10
2018-09-27T09:28:35.079Z,5.00
2018-09-27T09:31:02.898Z,4.43
2018-09-27T09:33:30.821Z,4.10
2018-09-27T09:35:58.680Z,4.73
2018-09-27T09:38:26.503Z,4.97
2018-09-27T09:40:54.374Z,4.60
2018-09-27T09:43:22.234Z,4.40
2018-09-27T09:45:50.128Z,4.50
2018-09-27T09:48:18.051Z,4.77
2018-09-27T09:50:45.918Z,5.07
2018-09-27T09:53:13.834Z,4.70
2018-09-27T09:55:41.678Z,4.73
2018-09-27T09:58:09.543Z,4.00
2018-09-27T10:00:37.673Z,4.33
2018-09-27T10:03:05.942Z,4.07
2018-09-27T10:05:33.822Z,4.47
2018-09-27T10:08:02.888Z,4.90
2018-09-27T10:10:30.758Z,4.07
2018-09-27T10:12:58.620Z,4.87
2018-09-27T10:15:26.514Z,3.83
2018-09-27T10:17:54.375Z,4.70
2018-09-27T10:20:22.227Z,4.77
2018-09-27T10:22:50.150Z,4.80
2018-09-27T10:25:17.998Z,4.30
2018-09-27T10:27:45.866Z,4.23
2018-09-27T10:30:14.186Z,4.67
2018-09-27T10:32:42.124Z,4.90
2018-09-27T10:35:09.974Z,4.50
2018-09-27T10:37:37.844Z,4.60
2018-09-27T10:40:05.753Z,4.60
2018-09-27T10:42:33.699Z,4.80
2018-09-27T10:45:01.660Z,5.13
2018-09-27T10:47:29.498Z,4.33
2018-09-27T10:49:57.367Z,5.50
2018-09-27T10:52:25.243Z,4.33
2018-09-27T10:54:53.130Z,5.20
2018-09-27T10:57:21.404Z,5.43
2018-09-27T10:59:49.291Z,5.03
2018-09-27T11:02:17.154Z,4.90
2018-09-27T11:04:45.266Z,4.77
2018-09-27T11:07:13.126Z,5.37
2018-09-27T11:09:40.986Z,4.77
2018-09-27T11:12:08.842Z,5.17
2018-09-27T11:14:36.698Z,5.27
2018-09-27T11:17:04.554Z,5.10
2018-09-27T11:19:32.415Z,5.43
2018-09-27T11:22:00.346Z,5.50
2018-09-27T11:24:28.180Z,5.13
2018-09-27T11:26:57.066Z,5.87
2018-09-27T11:29:30.355Z,5.67
2018-09-27T11:32:03.558Z,5.13
2018-09-27T11:34:31.440Z,5.43
2018-09-27T11:36:59.310Z,5.30
2018-09-27T11:39:27.175Z,5.50
2018-09-27T11:41:55.039Z,5.20
2018-09-27T11:44:22.898Z,5.43
2018-09-27T11:46:50.783Z,6.50
2018-09-27T11:49:18.687Z,5.47
2018-09-27T11:51:48.172Z,6.73
2018-09-27T11:54:16.131Z,5.57
2018-09-27T11:56:44.167Z,5.50
2018-09-27T11:59:12.196Z,5.63
2018-09-27T12:01:40.141Z,5.90
2018-09-27T12:04:07.957Z,5.83
2018-09-27T12:06:36.867Z,4.80
2018-09-27T12:09:07.022Z,5.43
2018-09-27T12:11:34.892Z,5.53
2018-09-27T12:14:02.782Z,5.37
2018-09-27T12:16:30.674Z,5.00
2018-09-27T12:18:58.538Z,5.47
2018-09-27T12:21:26.417Z,4.63
2018-09-27T12:23:55.291Z,5.23
2018-09-27T12:26:23.176Z,5.57
2018-09-27T12:28:51.044Z,4.47
2018-09-27T12:31:18.931Z,4.23
2018-09-27T12:33:46.807Z,4.50
2018-09-27T12:36:14.666Z,4.10
2018-09-27T12:38:42.577Z,3.97
2018-09-27T12:41:10.395Z,4.33
2018-09-27T12:43:38.696Z,3.63
2018-09-27T12:46:06.946Z,4.37
2018-09-27T12:48:34.821Z,3.70
2018-09-27T12:51:02.631Z,4.23
2018-09-27T12:53:30.467Z,4.00
2018-09-27T12:55:58.450Z,4.63
2018-09-27T12:58:26.253Z,3.77
2018-09-27T13:00:54.172Z,3.83
2018-09-27T13:03:21.989Z,3.67
2018-09-27T13:05:49.864Z,3.73
2018-09-27T13:08:17.730Z,2.67
2018-09-27T13:10:45.603Z,2.83
2018-09-27T13:13:14.581Z,3.30
2018-09-27T13:15:42.405Z,2.80
2018-09-27T13:18:10.311Z,2.60
2018-09-27T13:20:38.178Z,3.07
2018-09-27T13:23:06.078Z,2.67
2018-09-27T13:25:33.931Z,2.63
2018-09-27T13:28:01.832Z,2.70
2018-09-27T13:30:29.741Z,2.10
2018-09-27T13:32:57.604Z,2.13
2018-09-27T13:35:25.463Z,2.80
2018-09-27T13:37:53.360Z,2.90
2018-09-27T13:40:21.241Z,2.97
2018-09-27T13:42:49.108Z,2.50
2018-09-27T13:45:17.019Z,2.60
2018-09-27T13:47:44.886Z,3.87
2018-09-27T13:50:12.756Z,2.90
2018-09-27T13:52:40.640Z,2.33
2018-09-27T13:55:08.628Z,3.00
2018-09-27T13:57:36.433Z,2.87
2018-09-27T14:00:04.371Z,3.17
2018-09-27T14:02:32.239Z,2.57
2018-09-27T14:05:00.154Z,3.33
2018-09-27T14:07:28.038Z,2.80
2018-09-27T14:09:55.909Z,2.87
2018-09-27T14:12:23.814Z,2.90
2018-09-27T14:14:51.742Z,2.60
2018-09-27T14:17:19.782Z,2.70
2018-09-27T14:19:47.651Z,2.60
2018-09-27T14:22:15.518Z,2.67
2018-09-27T14:24:43.634Z,3.00
2018-09-27T14:27:11.452Z,2.60
2018-09-27T14:29:39.362Z,3.07
2018-09-27T14:32:07.291Z,2.90
2018-09-27T14:34:35.191Z,2.10
2018-09-27T14:37:03.129Z,2.50
2018-09-27T14:39:31.010Z,2.80
2018-09-27T14:41:58.900Z,2.20
2018-09-27T14:44:26.798Z,2.23
2018-09-27T14:46:54.692Z,1.90
2018-09-27T14:49:22.550Z,2.43
2018-09-27T14:51:52.368Z,1.90
2018-09-27T14:54:20.265Z,2.10
2018-09-27T14:56:48.124Z,2.00
2018-09-27T14:59:16.012Z,1.93
2018-09-27T15:01:43.890Z,2.30
2018-09-27T15:04:11.754Z,2.10
2018-09-27T15:06:39.656Z,2.20
2018-09-27T15:09:07.879Z,2.27
2018-09-27T15:11:35.778Z,2.40
2018-09-27T15:14:03.678Z,2.40
2018-09-27T15:16:31.599Z,2.03
2018-09-27T15:18:59.498Z,1.93
2018-09-27T15:21:27.439Z,2.03
2018-09-27T15:23:55.306Z,2.23
2018-09-27T15:26:23.190Z,1.90
2018-09-27T15:28:51.068Z,2.13
2018-09-27T15:31:19.523Z,2.17
2018-09-27T15:33:47.371Z,2.33
2018-09-27T15:36:15.263Z,2.03
2018-09-27T15:38:43.138Z,2.20
2018-09-27T15:41:11.004Z,2.13
2018-09-27T15:43:38.931Z,1.87
2018-09-27T15:46:06.823Z,1.73
2018-09-27T15:48:34.790Z,2.40
2018-09-27T15:51:02.671Z,1.97
2018-09-27T15:53:30.547Z,2.27
2018-09-27T15:55:58.452Z,1.80
2018-09-27T15:58:26.591Z,2.07
2018-09-27T16:00:54.399Z,1.60
2018-09-27T16:03:22.282Z,1.70
2018-09-27T16:05:50.160Z,1.60
2018-09-27T16:08:18.039Z,2.17
2018-09-27T16:10:45.937Z,1.90
2018-09-27T16:13:13.826Z,1.60
2018-09-27T16:15:41.697Z,1.67
2018-09-27T16:18:09.611Z,1.70
2018-09-27T16:20:38.819Z,1.73
2018-09-27T16:23:06.759Z,1.87
2018-09-27T16:25:34.634Z,1.63
2018-09-27T16:28:02.555Z,1.93
2018-09-27T16:30:30.712Z,1.80
2018-09-27T16:32:58.578Z,1.80
2018-09-27T16:35:26.537Z,1.73
2018-09-27T16:37:54.391Z,1.83
2018-09-27T16:40:22.378Z,1.70
2018-09-27T16:42:50.210Z,1.70
2018-09-27T16:45:18.187Z,1.43
2018-09-27T16:47:46.234Z,1.87
2018-09-27T16:50:14.108Z,1.97
2018-09-27T16:52:42.116Z,1.33
2018-09-27T16:55:09.974Z,2.60
2018-09-27T16:57:38.021Z,1.77
2018-09-27T17:00:06.468Z,1.50
2018-09-27T17:02:34.434Z,1.97
2018-09-27T17:05:02.329Z,1.87
2018-09-27T17:07:30.319Z,5.00
2018-09-27T17:09:58.311Z,4.23
2018-09-27T17:12:26.288Z,3.03
2018-09-27T17:14:54.156Z,2.20
2018-09-27T17:17:22.087Z,1.50
2018-09-27T17:19:50.023Z,1.23
2018-09-27T17:22:17.946Z,1.70
2018-09-27T17:24:45.814Z,1.70
2018-09-27T17:27:13.899Z,1.90
2018-09-27T17:29:41.849Z,2.20
2018-09-27T17:32:09.676Z,1.97
2018-09-27T17:34:37.624Z,1.80
2018-09-27T17:37:05.666Z,1.50
2018-09-27T17:39:33.526Z,1.70
2018-09-27T17:42:01.384Z,1.30
2018-09-27T17:44:29.362Z,1.70
2018-09-27T17:46:57.218Z,1.57
2018-09-27T17:49:25.134Z,1.60
2018-09-27T17:51:54.134Z,1.70
2018-09-27T17:54:22.048Z,1.70
2018-09-27T17:56:49.914Z,1.50
2018-09-27T17:59:17.772Z,1.67
2018-09-27T18:01:45.699Z,1.90
2018-09-27T18:04:13.532Z,2.00
2018-09-27T18:06:41.431Z,1.80
2018-09-27T18:09:10.055Z,1.60
2018-09-27T18:11:38.533Z,1.50
2018-09-27T18:14:06.347Z,1.57
2018-09-27T18:16:34.370Z,2.10
2018-09-27T18:19:02.286Z,1.87
2018-09-27T18:21:30.200Z,1.70
2018-09-27T18:23:58.079Z,1.90
2018-09-27T18:26:26.183Z,1.93
2018-09-27T18:28:54.050Z,2.60
2018-09-27T18:31:22.069Z,2.10
2018-09-27T18:33:49.962Z,1.97
2018-09-27T18:36:17.931Z,2.00
2018-09-27T18:38:45.838Z,2.03
2018-09-27T18:41:13.716Z,2.30
2018-09-27T18:43:41.595Z,2.20
2018-09-27T18:46:09.462Z,2.67
2018-09-27T18:48:37.363Z,2.03
2018-09-27T18:51:05.238Z,2.00
2018-09-27T18:53:33.499Z,1.93
2018-09-27T18:56:01.396Z,2.47
2018-09-27T18:58:29.345Z,2.50
2018-09-27T19:00:57.237Z,2.60
2018-09-27T19:03:25.103Z,2.83
2018-09-27T19:05:52.987Z,3.10
2018-09-27T19:08:20.855Z,2.50
2018-09-27T19:10:48.806Z,2.50
2018-09-27T19:13:16.723Z,3.30
2018-09-27T19:15:44.610Z,3.00
2018-09-27T19:18:12.527Z,2.83
2018-09-27T19:20:40.425Z,2.93
2018-09-27T19:23:08.287Z,2.60
2018-09-27T19:25:36.164Z,3.20
2018-09-27T19:28:04.082Z,2.70
2018-09-27T19:30:31.945Z,2.80
2018-09-27T19:32:59.898Z,2.50
2018-09-27T19:35:28.618Z,2.87
2018-09-27T19:37:56.624Z,2.53
2018-09-27T19:40:24.538Z,2.30
2018-09-27T19:42:52.402Z,2.50
2018-09-27T19:45:20.389Z,2.30
2018-09-27T19:47:48.222Z,2.37
2018-09-27T19:50:16.163Z,2.93
2018-09-27T19:52:44.167Z,2.73
2018-09-27T19:55:12.109Z,2.27
2018-09-27T19:57:40.612Z,2.80
2018-09-27T20:00:08.907Z,2.20
2018-09-27T20:02:36.805Z,3.03
2018-09-27T20:05:04.703Z,2.87
2018-09-27T20:07:32.582Z,2.57
2018-09-27T20:10:00.844Z,2.30
2018-09-27T20:12:28.718Z,2.77
2018-09-27T20:14:56.678Z,2.40
2018-09-27T20:17:26.895Z,2.70
2018-09-27T20:19:54.775Z,2.90
2018-09-27T20:22:24.042Z,3.40
2018-09-27T20:24:51.855Z,3.27
2018-09-27T20:27:19.812Z,3.30
2018-09-27T20:29:47.763Z,3.17
2018-09-27T20:32:15.723Z,3.20
2018-09-27T20:34:43.626Z,3.03
2018-09-27T20:37:11.567Z,2.67
2018-09-27T20:39:39.531Z,3.97
2018-09-27T20:42:07.438Z,3.80
2018-09-27T20:44:35.383Z,3.37
2018-09-27T20:47:03.339Z,3.43
2018-09-27T20:49:31.216Z,3.83
2018-09-27T20:51:59.118Z,3.57
2018-09-27T20:54:27.114Z,3.33
2018-09-27T20:56:56.107Z,3.30
2018-09-27T20:59:24.011Z,3.07
2018-09-27T21:01:51.987Z,2.87
2018-09-27T21:04:19.866Z,3.37
2018-09-27T21:06:47.819Z,3.90
2018-09-27T21:09:15.711Z,3.90
2018-09-27T21:11:43.671Z,3.93
2018-09-27T21:14:11.854Z,3.67
2018-09-27T21:16:40.348Z,4.40
2018-09-27T21:19:08.299Z,3.43
2018-09-27T21:21:36.170Z,3.50
2018-09-27T21:24:04.057Z,3.63
2018-09-27T21:26:31.940Z,3.53
2018-09-27T21:29:01.888Z,3.10
2018-09-27T21:31:29.863Z,3.40
2018-09-27T21:33:57.731Z,3.30
2018-09-27T21:36:25.695Z,2.90
2018-09-27T21:38:53.563Z,3.03
2018-09-27T21:41:21.619Z,2.90
2018-09-27T21:43:49.733Z,3.13
2018-09-27T21:46:17.590Z,3.50
2018-09-27T21:48:45.482Z,2.50
2018-09-27T21:51:14.984Z,3.07
2018-09-27T21:53:43.011Z,3.23
2018-09-27T21:56:10.891Z,3.00
2018-09-27T21:58:38.763Z,3.33
2018-09-27T22:01:06.719Z,3.50
2018-09-27T22:03:34.650Z,3.40
2018-09-27T22:06:02.555Z,2.70
2018-09-27T22:08:30.542Z,2.87
2018-09-27T22:10:58.425Z,2.60
2018-09-27T22:13:26.323Z,2.43
2018-09-27T22:15:54.201Z,2.87
2018-09-27T22:18:22.931Z,2.70
2018-09-27T22:20:50.805Z,2.17
2018-09-27T22:23:18.743Z,2.80
2018-09-27T22:25:46.726Z,2.90
2018-09-27T22:28:14.627Z,2.80
2018-09-27T22:30:42.506Z,2.97
2018-09-27T22:33:10.402Z,2.67
2018-09-27T22:35:38.271Z,3.30
2018-09-27T22:38:06.183Z,3.03
2018-09-27T22:40:34.147Z,3.10
2018-09-27T22:43:02.103Z,3.50
2018-09-27T22:45:29.953Z,2.73
2018-09-27T22:47:57.825Z,3.17
2018-09-27T22:50:25.743Z,3.43
2018-09-27T22:52:53.690Z,2.77
2018-09-27T22:55:21.654Z,2.90
2018-09-27T22:57:49.607Z,2.93
2018-09-27T23:00:17.512Z,3.40
2018-09-27T23:02:45.378Z,3.37
2018-09-27T23:05:13.255Z,2.93
2018-09-27T23:07:41.187Z,3.13
2018-09-27T23:10:09.443Z,2.93
2018-09-27T23:12:37.458Z,2.57
2018-09-27T23:15:05.935Z,2.57
2018-09-27T23:17:35.047Z,2.90
2018-09-27T23:20:03.027Z,2.70
2018-09-27T23:22:30.932Z,2.97
2018-09-27T23:24:58.851Z,2.70
2018-09-27T23:27:26.768Z,2.50
2018-09-27T23:29:54.750Z,2.67
2018-09-27T23:32:22.717Z,3.10
2018-09-27T23:34:50.594Z,3.37
2018-09-27T23:37:18.480Z,2.70
2018-09-27T23:39:46.415Z,2.83
2018-09-27T23:42:14.387Z,2.50
2018-09-27T23:44:42.287Z,2.20
2018-09-27T23:47:10.191Z,2.53
2018-09-27T23:49:38.078Z,3.00
2018-09-27T23:52:07.802Z,2.50
2018-09-27T23:54:35.666Z,2.53
2018-09-27T23:57:03.550Z,3.20
2018-09-27T23:59:31.438Z,3.10
